createdAt,value
2022-10-09T00:02:00.826Z,14.9
2022-10-09T00:04:31.767Z,14.8
2022-10-09T00:07:02.067Z,14.9
2022-10-09T00:09:33.065Z,15
2022-10-09T00:12:04.633Z,15
2022-10-09T00:14:35.662Z,15
2022-10-09T00:17:07.303Z,15
2022-10-09T00:19:38.185Z,15
2022-10-09T00:22:08.200Z,15
2022-10-09T00:24:39.270Z,15
2022-10-09T00:27:10.359Z,15.1
2022-10-09T00:29:41.330Z,14.9
2022-10-09T00:32:11.947Z,14.9
2022-10-09T00:34:43.235Z,14.9
2022-10-09T00:37:14.392Z,14.9
2022-10-09T00:39:46.541Z,14.9
2022-10-09T00:42:17.689Z,14.9
2022-10-09T00:44:48.919Z,14.9
2022-10-09T00:47:19.476Z,14.9
2022-10-09T00:49:51.120Z,14.9
2022-10-09T00:52:25.074Z,14.8
2022-10-09T00:54:57.012Z,14.9
2022-10-09T00:57:28.280Z,14.8
2022-10-09T01:00:00.614Z,14.9
2022-10-09T01:02:33.337Z,14.8
2022-10-09T01:05:06.742Z,14.8
2022-10-09T01:07:38.155Z,14.9
2022-10-09T01:10:09.448Z,14.8
2022-10-09T01:12:40.572Z,14.9
2022-10-09T01:15:12.071Z,14.9
2022-10-09T01:17:43.285Z,14.9
2022-10-09T01:20:14.449Z,14.8
2022-10-09T01:22:47.873Z,14.9
2022-10-09T01:25:19.082Z,14.9
2022-10-09T01:27:50.562Z,15
2022-10-09T01:30:21.841Z,14.9
2022-10-09T01:32:53.354Z,14.9
2022-10-09T01:35:24.885Z,14.9
2022-10-09T01:37:56.641Z,14.9
2022-10-09T01:40:28.159Z,14.8
2022-10-09T01:42:59.507Z,14.8
2022-10-09T01:45:30.615Z,14.7
2022-10-09T01:48:03.537Z,14.8
2022-10-09T01:50:37.600Z,14.8
2022-10-09T01:53:07.020Z,14.7
2022-10-09T01:55:38.192Z,14.6
2022-10-09T01:58:09.914Z,14.6
2022-10-09T02:00:40.975Z,14.6
2022-10-09T02:03:12.159Z,14.7
2022-10-09T02:05:43.386Z,14.6
2022-10-09T02:08:14.826Z,14.6
2022-10-09T02:10:46.151Z,14.6
2022-10-09T02:13:17.363Z,14.6
2022-10-09T02:15:48.613Z,14.6
2022-10-09T02:18:21.373Z,14.6
2022-10-09T02:20:52.838Z,14.6
2022-10-09T02:23:24.295Z,14.5
2022-10-09T02:25:55.273Z,14.6
2022-10-09T02:28:26.800Z,14.6
2022-10-09T02:30:58.335Z,14.6
2022-10-09T02:33:30.136Z,14.5
2022-10-09T02:36:00.846Z,14.7
2022-10-09T02:38:32.283Z,14.6
2022-10-09T02:41:03.670Z,14.7
2022-10-09T02:43:34.845Z,14.7
2022-10-09T02:46:05.641Z,14.6
2022-10-09T02:48:36.653Z,14.7
2022-10-09T02:51:08.728Z,14.7
2022-10-09T02:53:39.077Z,14.7
2022-10-09T02:56:10.405Z,14.7
2022-10-09T02:58:41.330Z,14.6
2022-10-09T03:01:13.100Z,14.6
2022-10-09T03:03:45.306Z,14.6
2022-10-09T03:06:16.282Z,14.6
2022-10-09T03:08:47.253Z,14.6
2022-10-09T03:11:18.522Z,14.5
2022-10-09T03:13:50.858Z,14.6
2022-10-09T03:16:22.283Z,14.6
2022-10-09T03:18:52.687Z,14.6
2022-10-09T03:21:23.832Z,14.6
2022-10-09T03:23:54.859Z,14.6
2022-10-09T03:26:25.980Z,14.6
2022-10-09T03:28:57.722Z,14.6
2022-10-09T03:33:59.959Z,14.6
2022-10-09T03:36:31.681Z,14.6
2022-10-09T03:39:02.059Z,14.6
2022-10-09T03:41:33.058Z,14.7
2022-10-09T03:44:05.392Z,14.6
2022-10-09T03:46:37.118Z,14.6
2022-10-09T03:49:07.684Z,14.6
2022-10-09T03:51:38.508Z,14.7
2022-10-09T03:54:09.548Z,14.7
2022-10-09T03:56:40.798Z,14.7
2022-10-09T03:59:11.979Z,14.7
2022-10-09T04:01:43.268Z,14.6
2022-10-09T04:04:14.433Z,14.6
2022-10-09T04:06:45.597Z,14.6
2022-10-09T04:09:16.254Z,14.7
2022-10-09T04:11:47.248Z,14.6
2022-10-09T04:14:18.536Z,14.7
2022-10-09T04:16:49.531Z,14.7
2022-10-09T04:19:21.121Z,14.6
2022-10-09T04:21:51.754Z,14.6
2022-10-09T04:24:22.652Z,14.6
2022-10-09T04:26:52.041Z,14.7
2022-10-09T04:29:22.972Z,14.7
2022-10-09T04:31:55.099Z,14.7
2022-10-09T04:34:26.281Z,14.6
2022-10-09T04:36:57.486Z,14.6
2022-10-09T04:39:28.574Z,14.6
2022-10-09T04:42:00.320Z,14.7
2022-10-09T04:44:33.797Z,14.7
2022-10-09T04:47:07.070Z,14.7
2022-10-09T04:49:36.412Z,14.7
2022-10-09T04:52:08.331Z,14.8
2022-10-09T04:54:40.468Z,14.7
2022-10-09T04:57:11.622Z,14.7
2022-10-09T04:59:43.162Z,14.7
2022-10-09T05:02:15.114Z,14.8
2022-10-09T05:04:46.100Z,14.9
2022-10-09T05:07:16.999Z,14.8
2022-10-09T05:09:46.965Z,14.9
2022-10-09T05:12:17.828Z,14.8
2022-10-09T05:14:48.779Z,14.9
2022-10-09T05:17:23.776Z,15
2022-10-09T05:19:55.163Z,15.1
2022-10-09T05:22:26.775Z,15.1
2022-10-09T05:24:58.581Z,15.1
2022-10-09T05:27:29.802Z,15.1
2022-10-09T05:30:00.963Z,15
2022-10-09T05:32:32.092Z,15.1
2022-10-09T05:35:03.125Z,15.1
2022-10-09T05:37:37.096Z,15.2
2022-10-09T05:40:08.508Z,15.1
2022-10-09T05:42:39.962Z,15.1
2022-10-09T05:45:11.603Z,15.1
2022-10-09T05:47:42.453Z,15.1
2022-10-09T05:50:13.499Z,15.2
2022-10-09T05:52:44.418Z,15.2
2022-10-09T05:55:15.492Z,15.3
2022-10-09T05:57:47.786Z,15.4
2022-10-09T06:00:18.955Z,15.4
2022-10-09T06:02:50.722Z,15.5
2022-10-09T06:05:21.460Z,15.6
2022-10-09T06:07:52.029Z,15.6
2022-10-09T06:10:23.359Z,15.7
2022-10-09T06:12:54.240Z,15.7
2022-10-09T06:15:24.965Z,15.7
2022-10-09T06:17:54.351Z,15.8
2022-10-09T06:20:24.832Z,15.8
2022-10-09T06:22:55.471Z,15.9
2022-10-09T06:25:26.252Z,16
2022-10-09T06:27:57.535Z,15.9
2022-10-09T06:30:28.584Z,16
2022-10-09T06:32:59.392Z,16.1
2022-10-09T06:35:31.009Z,16.1
2022-10-09T06:38:01.968Z,16.2
2022-10-09T06:40:33.849Z,16.2
2022-10-09T06:43:05.066Z,16.3
2022-10-09T06:45:37.298Z,16.3
2022-10-09T06:48:09.505Z,16.4
2022-10-09T06:50:40.176Z,16.5
2022-10-09T06:53:11.154Z,16.4
2022-10-09T06:55:42.110Z,16.5
2022-10-09T06:58:13.322Z,16.5
2022-10-09T07:00:44.730Z,16.6
2022-10-09T07:03:15.727Z,16.6
2022-10-09T07:05:45.800Z,16.8
2022-10-09T07:08:16.671Z,16.8
2022-10-09T07:10:47.898Z,16.8
2022-10-09T07:13:18.736Z,16.9
2022-10-09T07:15:50.058Z,16.9
2022-10-09T07:18:21.204Z,16.9
2022-10-09T07:20:52.595Z,17
2022-10-09T07:23:23.594Z,17
2022-10-09T07:25:54.804Z,17
2022-10-09T07:28:25.614Z,17
2022-10-09T07:30:56.286Z,17.1
2022-10-09T07:33:27.310Z,17.1
2022-10-09T07:35:59.130Z,17.1
2022-10-09T07:38:31.125Z,17.2
2022-10-09T07:41:01.905Z,17.4
2022-10-09T07:43:33.921Z,17.4
2022-10-09T07:46:04.896Z,17.5
2022-10-09T07:48:44.742Z,17.6
2022-10-09T07:51:14.440Z,17.7
2022-10-09T07:53:45.684Z,17.8
2022-10-09T07:56:16.767Z,17.8
2022-10-09T07:58:49.331Z,17.9
2022-10-09T08:01:21.466Z,18
2022-10-09T08:03:52.363Z,18.2
2022-10-09T08:06:24.032Z,18.1
2022-10-09T08:08:56.445Z,18.2
2022-10-09T08:11:28.458Z,18.3
2022-10-09T08:14:00.491Z,18.5
2022-10-09T08:16:31.636Z,18.5
2022-10-09T08:19:03.031Z,18.7
2022-10-09T08:21:34.556Z,18.7
2022-10-09T08:24:04.037Z,18.8
2022-10-09T08:26:35.406Z,18.8
2022-10-09T08:29:06.792Z,18.8
2022-10-09T08:31:38.664Z,18.8
2022-10-09T08:34:09.592Z,18.8
2022-10-09T08:36:41.090Z,18.8
2022-10-09T08:39:12.660Z,18.8
2022-10-09T08:41:44.255Z,18.8
2022-10-09T08:44:15.555Z,18.9
2022-10-09T08:46:47.919Z,18.9
2022-10-09T08:49:19.519Z,19
2022-10-09T08:51:54.304Z,19
2022-10-09T08:54:24.266Z,19
2022-10-09T08:56:54.281Z,19
2022-10-09T08:59:27.920Z,19.1
2022-10-09T09:01:59.382Z,19.2
2022-10-09T09:04:31.249Z,19.2
2022-10-09T09:07:03.528Z,19.2
2022-10-09T09:09:34.852Z,19.2
2022-10-09T09:12:08.117Z,19.3
2022-10-09T09:14:39.684Z,19.4
2022-10-09T09:17:11.301Z,19.5
2022-10-09T09:19:41.421Z,19.5
2022-10-09T09:22:12.742Z,19.6
2022-10-09T09:24:46.408Z,19.6
2022-10-09T09:27:17.502Z,19.7
2022-10-09T09:29:48.637Z,19.8
2022-10-09T09:32:19.242Z,19.8
2022-10-09T09:34:50.506Z,19.9
2022-10-09T09:37:22.100Z,19.9
2022-10-09T09:40:34.713Z,19.9
2022-10-09T09:42:26.033Z,20
2022-10-09T09:44:58.214Z,20
2022-10-09T09:47:29.656Z,20.1
2022-10-09T09:50:01.207Z,20.2
2022-10-09T09:52:32.753Z,20.2
2022-10-09T09:55:03.909Z,20.3
2022-10-09T09:57:34.711Z,20.4
2022-10-09T10:00:07.941Z,20.5
2022-10-09T10:02:39.389Z,20.7
2022-10-09T10:05:10.224Z,20.7
2022-10-09T10:07:41.209Z,20.6
2022-10-09T10:10:14.494Z,20.8
2022-10-09T10:12:47.220Z,20.8
2022-10-09T10:15:18.783Z,20.6
2022-10-09T10:17:48.184Z,20.6
2022-10-09T10:20:19.337Z,20.7
2022-10-09T10:22:51.819Z,20.8
2022-10-09T10:25:23.268Z,20.9
2022-10-09T10:27:54.705Z,20.9
2022-10-09T10:30:24.510Z,21
2022-10-09T10:32:56.156Z,21.2
2022-10-09T10:35:26.623Z,21.3
2022-10-09T10:37:57.082Z,21.2
2022-10-09T10:40:29.322Z,21.2
2022-10-09T10:43:00.551Z,21.2
2022-10-09T10:45:32.967Z,21.3
2022-10-09T10:48:02.966Z,21.3
2022-10-09T10:50:32.469Z,21.4
2022-10-09T10:53:03.569Z,21.5
2022-10-09T10:55:34.878Z,21.5
2022-10-09T10:58:06.562Z,21.7
2022-10-09T11:00:38.361Z,21.8
2022-10-09T11:03:10.533Z,21.9
2022-10-09T11:05:41.906Z,21.9
2022-10-09T11:08:13.317Z,22
2022-10-09T11:10:45.774Z,22
2022-10-09T11:13:18.203Z,22
2022-10-09T11:15:53.751Z,22
2022-10-09T11:18:25.191Z,22.2
2022-10-09T11:20:56.817Z,22.2
2022-10-09T11:23:28.844Z,22.2
2022-10-09T11:26:00.210Z,22.3
2022-10-09T11:28:31.794Z,22.3
2022-10-09T11:31:03.057Z,22.3
2022-10-09T11:33:34.688Z,22.4
2022-10-09T11:36:06.324Z,22.3
2022-10-09T11:38:38.432Z,22.4
2022-10-09T11:41:10.123Z,22.3
2022-10-09T11:43:41.640Z,22.1
2022-10-09T11:46:13.319Z,22
2022-10-09T11:48:44.565Z,22.1
2022-10-09T11:51:15.955Z,22.1
2022-10-09T11:53:47.400Z,22.1
2022-10-09T11:56:18.822Z,22.2
2022-10-09T11:58:50.104Z,22.2
2022-10-09T12:01:21.950Z,22.2
2022-10-09T12:03:58.728Z,22.2
2022-10-09T12:06:25.755Z,22.1
2022-10-09T12:08:58.786Z,22.1
2022-10-09T12:11:29.437Z,22.2
2022-10-09T12:14:01.289Z,22.3
2022-10-09T12:16:32.772Z,22.3
2022-10-09T12:19:03.730Z,22.3
2022-10-09T12:21:36.199Z,22.2
2022-10-09T12:24:07.640Z,22.2
2022-10-09T12:26:38.553Z,22.2
2022-10-09T12:29:09.579Z,22.2
2022-10-09T12:31:40.799Z,22.2
2022-10-09T12:34:12.434Z,22.2
2022-10-09T12:36:44.261Z,22.3
2022-10-09T12:39:13.999Z,22.1
2022-10-09T12:41:45.039Z,22.1
2022-10-09T12:44:16.589Z,22
2022-10-09T12:46:48.261Z,22.1
2022-10-09T12:49:20.157Z,22
2022-10-09T12:51:53.787Z,22
2022-10-09T12:54:23.569Z,22
2022-10-09T12:56:54.894Z,22.1
2022-10-09T12:59:25.140Z,22.2
2022-10-09T13:01:56.619Z,22.2
2022-10-09T13:04:27.392Z,22.1
2022-10-09T13:06:58.862Z,22.2
2022-10-09T13:09:30.322Z,22.1
2022-10-09T13:12:02.414Z,22.1
2022-10-09T13:14:33.699Z,22.2
2022-10-09T13:17:04.807Z,22.3
2022-10-09T13:19:35.783Z,22.3
2022-10-09T13:22:06.767Z,22.3
2022-10-09T13:24:38.539Z,22.3
2022-10-09T13:27:09.881Z,22.4
2022-10-09T13:29:40.834Z,22.3
2022-10-09T13:32:11.869Z,22.3
2022-10-09T13:34:44.878Z,22.3
2022-10-09T13:37:16.594Z,22.2
2022-10-09T13:39:47.779Z,22.2
2022-10-09T13:42:19.716Z,22
2022-10-09T13:44:51.650Z,22.1
2022-10-09T13:47:24.544Z,22
2022-10-09T13:49:54.892Z,22.1
2022-10-09T13:52:25.873Z,22
2022-10-09T13:54:57.027Z,22
2022-10-09T13:57:28.761Z,21.9
2022-10-09T14:00:00.725Z,21.8
2022-10-09T14:02:32.159Z,21.9
2022-10-09T14:05:04.004Z,21.8
2022-10-09T14:07:35.179Z,21.7
2022-10-09T14:10:06.922Z,21.6
2022-10-09T14:12:37.941Z,21.6
2022-10-09T14:15:10.335Z,21.6
2022-10-09T14:17:41.456Z,21.5
2022-10-09T14:20:12.745Z,21.5
2022-10-09T14:22:43.881Z,21.4
2022-10-09T14:25:14.968Z,21.4
2022-10-09T14:27:46.157Z,21.3
2022-10-09T14:30:17.607Z,21.3
2022-10-09T14:32:50.354Z,21.2
2022-10-09T14:35:21.841Z,21.2
2022-10-09T14:37:53.045Z,21
2022-10-09T14:40:24.210Z,21
2022-10-09T14:42:55.151Z,21
2022-10-09T14:45:26.372Z,21
2022-10-09T14:47:57.773Z,20.9
2022-10-09T14:50:29.111Z,20.8
2022-10-09T14:53:01.345Z,20.8
2022-10-09T14:55:32.526Z,20.7
2022-10-09T14:58:03.749Z,20.7
2022-10-09T15:00:35.261Z,20.7
2022-10-09T15:03:07.719Z,20.7
2022-10-09T15:05:39.047Z,20.7
2022-10-09T15:08:10.574Z,20.6
2022-10-09T15:10:41.829Z,20.5
2022-10-09T15:13:13.504Z,20.5
2022-10-09T15:15:45.593Z,20.6
2022-10-09T15:18:17.200Z,20.5
2022-10-09T15:20:48.263Z,20.5
2022-10-09T15:23:19.214Z,20.5
2022-10-09T15:25:49.025Z,20.5
2022-10-09T15:28:21.272Z,20.4
2022-10-09T15:30:52.606Z,20.5
2022-10-09T15:33:24.033Z,20.5
2022-10-09T15:35:55.975Z,20.4
2022-10-09T15:38:27.446Z,20.3
2022-10-09T15:40:58.810Z,20.2
2022-10-09T15:43:30.169Z,20.3
2022-10-09T15:46:01.379Z,20.3
2022-10-09T15:48:33.089Z,20.3
2022-10-09T15:51:05.168Z,20.3
2022-10-09T15:53:38.783Z,20.1
2022-10-09T15:56:09.922Z,20
2022-10-09T15:58:41.852Z,20
2022-10-09T16:01:13.601Z,19.8
2022-10-09T16:03:44.702Z,19.7
2022-10-09T16:06:16.867Z,19.8
2022-10-09T16:08:49.831Z,19.7
2022-10-09T16:11:23.296Z,19.8
2022-10-09T16:13:53.755Z,19.8
2022-10-09T16:16:25.585Z,19.9
2022-10-09T16:18:59.992Z,19.9
2022-10-09T16:21:31.586Z,19.7
2022-10-09T16:24:02.952Z,19.8
2022-10-09T16:26:36.611Z,19.6
2022-10-09T16:29:09.440Z,19.6
2022-10-09T16:31:40.847Z,19.6
2022-10-09T16:34:10.756Z,19.6
2022-10-09T16:36:45.757Z,19.5
2022-10-09T16:39:19.489Z,19.4
2022-10-09T16:41:52.636Z,19.5
2022-10-09T16:44:23.865Z,19.4
2022-10-09T16:46:56.517Z,19.1
2022-10-09T16:49:28.475Z,19.2
2022-10-09T16:52:00.967Z,19.1
2022-10-09T16:54:35.821Z,19.2
2022-10-09T16:57:07.480Z,19.2
2022-10-09T16:59:40.833Z,19.2
2022-10-09T17:02:12.568Z,19.2
2022-10-09T17:04:45.247Z,19.1
2022-10-09T17:07:17.581Z,19
2022-10-09T17:09:49.092Z,19
2022-10-09T17:12:20.441Z,19
2022-10-09T17:14:53.067Z,19
2022-10-09T17:17:24.485Z,19
2022-10-09T17:19:55.844Z,19
2022-10-09T17:22:28.572Z,18.9
2022-10-09T17:24:59.771Z,18.9
2022-10-09T17:27:30.820Z,18.9
2022-10-09T17:30:03.907Z,18.9
2022-10-09T17:32:35.287Z,18.9
2022-10-09T17:35:07.685Z,19
2022-10-09T17:37:38.957Z,18.9
2022-10-09T17:40:09.882Z,18.9
2022-10-09T17:42:41.475Z,18.8
2022-10-09T17:45:12.679Z,18.8
2022-10-09T17:47:44.315Z,18.8
2022-10-09T17:50:15.771Z,18.8
2022-10-09T17:52:47.337Z,18.7
2022-10-09T17:55:18.730Z,18.7
2022-10-09T17:57:52.518Z,18.7
2022-10-09T18:00:23.659Z,18.7
2022-10-09T18:02:55.168Z,18.7
2022-10-09T18:05:28.517Z,18.6
2022-10-09T18:08:00.064Z,18.6
2022-10-09T18:10:32.096Z,18.4
2022-10-09T18:13:03.253Z,18.5
2022-10-09T18:15:34.548Z,18.4
2022-10-09T18:18:06.395Z,18.5
2022-10-09T18:20:38.177Z,18.4
2022-10-09T18:23:09.730Z,18.4
2022-10-09T18:25:41.372Z,18.3
2022-10-09T18:28:13.236Z,18.3
2022-10-09T18:30:46.241Z,18.3
2022-10-09T18:33:18.344Z,18.3
2022-10-09T18:35:53.672Z,18.3
2022-10-09T18:38:26.269Z,18.3
2022-10-09T18:40:58.506Z,18.3
2022-10-09T18:43:30.783Z,18.2
2022-10-09T18:46:03.019Z,18.2
2022-10-09T18:48:36.027Z,18.2
2022-10-09T18:51:08.025Z,18.1
2022-10-09T18:53:39.939Z,18
2022-10-09T18:56:11.394Z,18
2022-10-09T18:58:43.439Z,18
2022-10-09T19:01:14.537Z,17.9
2022-10-09T19:03:47.554Z,18
2022-10-09T19:06:19.008Z,17.9
2022-10-09T19:08:52.034Z,17.8
2022-10-09T19:11:23.322Z,17.9
2022-10-09T19:13:56.682Z,17.9
2022-10-09T19:16:28.815Z,17.9
2022-10-09T19:19:00.135Z,17.9
2022-10-09T19:21:31.893Z,17.8
2022-10-09T19:24:03.626Z,17.8
2022-10-09T19:26:34.793Z,17.7
2022-10-09T19:29:08.065Z,17.7
2022-10-09T19:31:40.167Z,17.6
2022-10-09T19:34:10.547Z,17.6
2022-10-09T19:36:41.849Z,17.6
2022-10-09T19:39:13.629Z,17.5
2022-10-09T19:41:45.658Z,17.5
2022-10-09T19:44:17.772Z,17.5
2022-10-09T19:46:49.433Z,17.5
2022-10-09T19:49:21.725Z,17.5
2022-10-09T19:51:53.287Z,17.4
2022-10-09T19:54:25.066Z,17.4
2022-10-09T19:56:56.613Z,17.4
2022-10-09T19:59:28.586Z,17.4
2022-10-09T20:02:00.247Z,17.4
2022-10-09T20:04:31.680Z,17.4
2022-10-09T20:07:03.085Z,17.4
2022-10-09T20:09:34.040Z,17.3
2022-10-09T20:12:05.429Z,17.3
2022-10-09T20:14:37.933Z,17.4
2022-10-09T20:17:08.847Z,17.4
2022-10-09T20:19:44.849Z,17.4
2022-10-09T20:22:11.804Z,17.3
2022-10-09T20:24:43.808Z,17.3
2022-10-09T20:27:15.778Z,17.2
2022-10-09T20:29:47.581Z,17.1
2022-10-09T20:32:19.017Z,17.2
2022-10-09T20:34:49.011Z,17.1
2022-10-09T20:37:20.087Z,17.2
2022-10-09T20:39:52.906Z,17.1
2022-10-09T20:42:24.728Z,17
2022-10-09T20:44:56.388Z,17
2022-10-09T20:47:28.392Z,17
2022-10-09T20:50:00.752Z,17
2022-10-09T20:52:32.303Z,17
2022-10-09T20:55:04.001Z,17
2022-10-09T20:57:36.250Z,17
2022-10-09T21:00:07.745Z,16.9
2022-10-09T21:02:38.989Z,16.9
2022-10-09T21:05:10.644Z,16.9
2022-10-09T21:07:41.604Z,16.9
2022-10-09T21:10:13.527Z,16.9
2022-10-09T21:12:44.840Z,16.9
2022-10-09T21:15:16.609Z,16.8
2022-10-09T21:17:47.607Z,16.7
2022-10-09T21:20:20.522Z,16.7
2022-10-09T21:22:52.189Z,16.7
2022-10-09T21:25:23.512Z,16.6
2022-10-09T21:27:55.219Z,16.5
2022-10-09T21:30:28.005Z,16.6
2022-10-09T21:32:59.779Z,16.5
2022-10-09T21:35:31.113Z,16.5
2022-10-09T21:38:02.524Z,16.4
2022-10-09T21:40:34.411Z,16.4
2022-10-09T21:43:07.889Z,16.3
2022-10-09T21:45:39.646Z,16.4
2022-10-09T21:48:10.780Z,16.3
2022-10-09T21:50:43.302Z,16.2
2022-10-09T21:53:14.923Z,16.2
2022-10-09T21:55:44.662Z,16.2
2022-10-09T21:58:15.442Z,16.2
2022-10-09T22:00:47.400Z,16.2
2022-10-09T22:03:18.602Z,16.2
2022-10-09T22:05:47.513Z,16.2
2022-10-09T22:08:18.785Z,16.1
2022-10-09T22:10:50.000Z,16
2022-10-09T22:13:21.235Z,16.1
2022-10-09T22:15:52.420Z,16
2022-10-09T22:18:23.379Z,16
2022-10-09T22:20:52.529Z,16
2022-10-09T22:23:23.463Z,16
2022-10-09T22:25:54.595Z,15.9
2022-10-09T22:28:25.873Z,15.8
2022-10-09T22:30:56.540Z,15.9
2022-10-09T22:33:27.372Z,15.9
2022-10-09T22:36:01.025Z,15.9
2022-10-09T22:38:31.965Z,15.9
2022-10-09T22:41:02.958Z,15.9
2022-10-09T22:43:34.187Z,15.9
2022-10-09T22:46:05.266Z,15.8
2022-10-09T22:48:39.633Z,15.8
2022-10-09T22:51:10.570Z,15.8
2022-10-09T22:53:41.399Z,15.7
2022-10-09T22:56:14.285Z,15.7
2022-10-09T22:58:46.156Z,15.6
2022-10-09T23:01:16.020Z,15.5
2022-10-09T23:03:46.728Z,15.5
2022-10-09T23:06:17.966Z,15.6
2022-10-09T23:08:48.684Z,15.4
2022-10-09T23:11:19.538Z,15.5
2022-10-09T23:13:50.754Z,15.5
2022-10-09T23:16:22.726Z,15.4
2022-10-09T23:18:53.403Z,15.4
2022-10-09T23:21:24.808Z,15.5
2022-10-09T23:23:56.140Z,15.3
2022-10-09T23:26:27.019Z,15.3
2022-10-09T23:28:58.364Z,15.4
2022-10-09T23:31:33.781Z,15.4
2022-10-09T23:34:04.822Z,15.4
2022-10-09T23:36:36.226Z,15.3
2022-10-09T23:39:07.081Z,15.3
2022-10-09T23:41:40.000Z,15.4
2022-10-09T23:44:11.120Z,15.3
2022-10-09T23:46:42.714Z,15.3
2022-10-09T23:49:13.412Z,15.3
2022-10-09T23:51:44.066Z,15.3
2022-10-09T23:54:15.349Z,15.3
2022-10-09T23:56:46.921Z,15.3
2022-10-09T23:59:17.728Z,15.3
